Time;durP1;ratioP1;P1;durP2;ratioP2;P2;SDS_P1;SDS_P2;PMS_P1;PMS_P2;Temp;Humidity;BMP_temperature;BMP_pressure;BME280_temperature;BME280_humidity;BME280_pressure;Samples;Min_cycle;Max_cycle;Signal;HPM_P1;HPM_P2
2022/03/09 00:02:19;;;;;;;12.27;6.35;;;;;;;;;;5074775;28;20029;-79
2022/03/09 00:04:45;;;;;;;13.10;6.70;;;;;;;;;;5089797;28;20025;-79
2022/03/09 00:07:11;;;;;;;14.48;7.15;;;;;;;;;;5094230;28;20464;-79
2022/03/09 00:09:37;;;;;;;13.07;7.05;;;;;;;;;;5095391;28;20024;-79
2022/03/09 00:12:04;;;;;;;14.82;8.00;;;;;;;;;;5095345;28;20024;-79
2022/03/09 00:14:30;;;;;;;13.18;6.40;;;;;;;;;;5095264;28;20032;-79
2022/03/09 00:16:56;;;;;;;12.40;7.03;;;;;;;;;;5095145;28;20052;-79
2022/03/09 00:19:22;;;;;;;16.92;6.75;;;;;;;;;;5094985;28;20016;-79
2022/03/09 00:21:48;;;;;;;16.35;7.15;;;;;;;;;;5095137;28;20016;-79
2022/03/09 00:24:14;;;;;;;14.20;6.65;;;;;;;;;;5094849;28;20450;-79
2022/03/09 00:26:41;;;;;;;14.90;7.05;;;;;;;;;;5094555;28;20020;-79
2022/03/09 00:29:07;;;;;;;12.70;6.70;;;;;;;;;;5095115;28;20388;-79
2022/03/09 00:31:33;;;;;;;14.77;7.30;;;;;;;;;;5094951;28;20099;-79
2022/03/09 00:33:59;;;;;;;11.60;6.10;;;;;;;;;;5094999;28;20024;-79
2022/03/09 00:36:25;;;;;;;14.70;6.88;;;;;;;;;;5095041;28;20031;-79
2022/03/09 00:38:51;;;;;;;14.52;6.80;;;;;;;;;;5094303;28;20177;-79
2022/03/09 00:41:17;;;;;;;12.60;7.07;;;;;;;;;;5094796;28;20028;-79
2022/03/09 00:43:43;;;;;;;12.80;7.00;;;;;;;;;;5094635;28;20028;-79
2022/03/09 00:46:09;;;;;;;17.50;7.07;;;;;;;;;;5094955;28;20024;-79
2022/03/09 00:48:35;;;;;;;12.88;7.00;;;;;;;;;;5089628;28;20094;-79
2022/03/09 00:51:01;;;;;;;12.88;6.75;;;;;;;;;;5074090;28;20040;-79
2022/03/09 00:53:27;;;;;;;12.93;6.97;;;;;;;;;;5074197;28;20017;-79
2022/03/09 00:55:53;;;;;;;12.50;7.28;;;;;;;;;;5074314;28;20111;-79
2022/03/09 00:58:19;;;;;;;12.88;6.68;;;;;;;;;;5074137;28;20021;-79
2022/03/09 01:00:45;;;;;;;16.10;7.53;;;;;;;;;;5072940;28;20025;-79
2022/03/09 01:03:11;;;;;;;15.75;7.10;;;;;;;;;;5075458;28;20067;-79
2022/03/09 01:05:37;;;;;;;15.23;8.13;;;;;;;;;;5094248;28;20067;-79
2022/03/09 01:08:03;;;;;;;16.95;8.82;;;;;;;;;;5094273;28;20031;-79
2022/03/09 01:10:29;;;;;;;18.05;8.98;;;;;;;;;;5094040;28;20028;-79
2022/03/09 01:12:55;;;;;;;15.73;8.55;;;;;;;;;;5094117;28;20024;-79
2022/03/09 01:15:21;;;;;;;22.95;9.52;;;;;;;;;;5094117;28;20031;-79
2022/03/09 01:17:47;;;;;;;17.58;9.23;;;;;;;;;;5094110;28;20027;-79
2022/03/09 01:20:13;;;;;;;22.98;8.40;;;;;;;;;;5079629;28;20025;-79
2022/03/09 01:22:39;;;;;;;19.42;8.88;;;;;;;;;;5073619;28;20085;-79
2022/03/09 01:25:06;;;;;;;19.73;8.88;;;;;;;;;;5073722;28;20390;-79
2022/03/09 01:27:32;;;;;;;16.73;7.93;;;;;;;;;;5073600;28;20020;-79
2022/03/09 01:29:58;;;;;;;14.57;7.63;;;;;;;;;;5073598;28;20166;-79
2022/03/09 01:32:24;;;;;;;14.57;7.03;;;;;;;;;;5073507;28;20028;-79
2022/03/09 01:34:50;;;;;;;17.00;7.70;;;;;;;;;;5073574;28;20020;-79
2022/03/09 01:37:16;;;;;;;15.55;7.53;;;;;;;;;;5078018;28;20012;-79
2022/03/09 01:39:42;;;;;;;16.80;7.38;;;;;;;;;;5093540;28;20123;-79
2022/03/09 01:42:09;;;;;;;13.15;7.00;;;;;;;;;;5093596;28;20467;-79
2022/03/09 01:44:35;;;;;;;14.75;7.32;;;;;;;;;;5093486;28;20027;-79
2022/03/09 01:47:01;;;;;;;17.92;7.30;;;;;;;;;;5088972;28;20071;-79
2022/03/09 01:49:27;;;;;;;13.40;7.50;;;;;;;;;;5073234;28;20082;-79
2022/03/09 01:51:54;;;;;;;16.05;7.85;;;;;;;;;;5073081;28;20045;-79
2022/03/09 01:54:20;;;;;;;13.73;7.25;;;;;;;;;;5072979;28;20040;-79
2022/03/09 01:56:47;;;;;;;18.73;7.10;;;;;;;;;;5073006;28;20509;-79
2022/03/09 01:59:14;;;;;;;13.48;7.05;;;;;;;;;;5073029;28;20021;-79
2022/03/09 02:01:40;;;;;;;14.07;7.07;;;;;;;;;;5072923;28;20025;-79
2022/03/09 02:04:07;;;;;;;13.88;6.97;;;;;;;;;;5082014;28;20582;-79
2022/03/09 02:06:34;;;;;;;15.15;7.53;;;;;;;;;;5093245;28;20039;-79
2022/03/09 02:11:45;;;;;;;17.38;7.93;;;;;;;;;;5093624;28;20096;-79
2022/03/09 02:14:28;;;;;;;16.73;8.32;;;;;;;;;;5093023;28;20024;-79
2022/03/09 02:16:55;;;;;;;18.27;8.38;;;;;;;;;;5091681;28;20160;-79
2022/03/09 02:19:21;;;;;;;14.85;8.00;;;;;;;;;;5085601;28;20198;-79
2022/03/09 02:21:48;;;;;;;15.30;7.93;;;;;;;;;;5072222;28;20089;-79
2022/03/09 02:24:14;;;;;;;18.08;8.02;;;;;;;;;;5072833;28;20421;-79
2022/03/09 02:26:41;;;;;;;16.52;7.85;;;;;;;;;;5072649;28;20048;-79
2022/03/09 02:29:07;;;;;;;18.48;7.60;;;;;;;;;;5071069;28;20102;-79
2022/03/09 02:31:33;;;;;;;18.98;7.40;;;;;;;;;;5072646;28;20035;-79
2022/03/09 02:33:59;;;;;;;17.85;7.85;;;;;;;;;;5072535;28;20025;-79
2022/03/09 02:36:25;;;;;;;14.65;7.95;;;;;;;;;;5072564;28;20383;-79
2022/03/09 02:38:51;;;;;;;14.88;7.50;;;;;;;;;;5090166;28;20043;-79
2022/03/09 02:41:17;;;;;;;18.73;8.50;;;;;;;;;;5092699;28;20040;-79
2022/03/09 02:43:43;;;;;;;17.48;7.93;;;;;;;;;;5092534;28;20020;-79
2022/03/09 02:46:09;;;;;;;18.52;7.93;;;;;;;;;;5092815;28;20385;-79
2022/03/09 02:48:35;;;;;;;12.98;8.10;;;;;;;;;;5091416;28;20366;-79
2022/03/09 02:51:01;;;;;;;15.23;7.90;;;;;;;;;;5092557;28;20024;-79
2022/03/09 02:53:27;;;;;;;15.50;7.55;;;;;;;;;;5092532;28;20032;-79
2022/03/09 02:55:53;;;;;;;16.48;8.07;;;;;;;;;;5092764;28;20016;-79
2022/03/09 02:58:19;;;;;;;13.38;7.25;;;;;;;;;;5092677;28;20020;-79
2022/03/09 03:00:45;;;;;;;16.42;7.70;;;;;;;;;;5092390;28;20435;-79
2022/03/09 03:03:11;;;;;;;16.35;7.93;;;;;;;;;;5092332;28;20466;-79
2022/03/09 03:05:37;;;;;;;13.75;7.55;;;;;;;;;;5092552;28;20089;-79
2022/03/09 03:08:03;;;;;;;14.75;7.93;;;;;;;;;;5092626;28;20028;-79
2022/03/09 03:10:29;;;;;;;17.33;8.73;;;;;;;;;;5092399;28;20024;-79
2022/03/09 03:12:55;;;;;;;19.90;8.38;;;;;;;;;;5092509;28;20541;-79
2022/03/09 03:15:21;;;;;;;12.57;7.57;;;;;;;;;;5092408;28;20035;-79
2022/03/09 03:17:47;;;;;;;15.18;8.32;;;;;;;;;;5092301;28;20474;-79
2022/03/09 03:20:13;;;;;;;15.52;8.63;;;;;;;;;;5077807;28;20029;-79
2022/03/09 03:22:39;;;;;;;17.88;7.68;;;;;;;;;;5072365;28;20036;-79
2022/03/09 03:25:05;;;;;;;16.63;8.10;;;;;;;;;;5071966;28;20039;-79
2022/03/09 03:27:31;;;;;;;12.95;7.53;;;;;;;;;;5072098;28;20102;-79
2022/03/09 03:29:57;;;;;;;14.70;7.95;;;;;;;;;;5072391;28;20040;-79
2022/03/09 03:32:23;;;;;;;17.25;8.13;;;;;;;;;;5071940;28;20029;-79
2022/03/09 03:34:49;;;;;;;17.13;8.07;;;;;;;;;;5075944;28;20043;-79
2022/03/09 03:37:15;;;;;;;16.13;7.82;;;;;;;;;;5080081;28;20174;-80
2022/03/09 03:39:41;;;;;;;17.02;8.23;;;;;;;;;;5096237;28;20032;-79
2022/03/09 03:42:07;;;;;;;19.48;8.40;;;;;;;;;;5096066;28;20020;-80
2022/03/09 03:44:33;;;;;;;15.45;8.10;;;;;;;;;;5094775;28;20081;-80
2022/03/09 03:46:59;;;;;;;14.15;8.15;;;;;;;;;;5092052;28;20029;-80
2022/03/09 03:49:25;;;;;;;16.13;8.32;;;;;;;;;;5075630;28;20036;-79
2022/03/09 03:51:51;;;;;;;13.82;8.00;;;;;;;;;;5075571;28;20048;-80
2022/03/09 03:54:17;;;;;;;18.55;8.18;;;;;;;;;;5075376;28;20432;-80
2022/03/09 03:56:45;;;;;;;15.77;8.25;;;;;;;;;;5075616;28;20032;-80
2022/03/09 03:59:11;;;;;;;15.13;7.82;;;;;;;;;;5075373;28;20021;-80
2022/03/09 04:01:37;;;;;;;16.92;8.38;;;;;;;;;;5075259;28;20471;-79
2022/03/09 04:04:03;;;;;;;17.00;7.88;;;;;;;;;;5075426;28;20039;-79
2022/03/09 04:06:30;;;;;;;18.63;8.75;;;;;;;;;;5075314;28;20113;-79
2022/03/09 04:08:56;;;;;;;17.20;8.35;;;;;;;;;;5075266;28;20039;-79
2022/03/09 04:11:22;;;;;;;16.25;8.30;;;;;;;;;;5074738;28;20514;-80
2022/03/09 04:13:48;;;;;;;18.08;8.75;;;;;;;;;;5074387;28;20075;-79
2022/03/09 04:16:14;;;;;;;16.05;8.02;;;;;;;;;;5074763;28;20033;-79
2022/03/09 04:18:40;;;;;;;15.13;7.80;;;;;;;;;;5074783;28;20025;-79
2022/03/09 04:21:06;;;;;;;18.30;7.75;;;;;;;;;;5095105;28;20039;-79
2022/03/09 04:23:32;;;;;;;14.35;8.23;;;;;;;;;;5095101;28;20111;-79
2022/03/09 04:25:58;;;;;;;14.85;7.15;;;;;;;;;;5095088;28;20149;-79
2022/03/09 04:28:24;;;;;;;15.68;7.90;;;;;;;;;;5095117;28;20028;-79
2022/03/09 04:30:50;;;;;;;17.60;7.45;;;;;;;;;;5095292;28;20028;-79
2022/03/09 04:33:16;;;;;;;16.92;8.15;;;;;;;;;;5095239;28;20072;-79
2022/03/09 04:35:42;;;;;;;18.27;8.82;;;;;;;;;;5095065;28;20107;-79
2022/03/09 04:38:08;;;;;;;16.33;8.75;;;;;;;;;;5093492;28;20024;-79
2022/03/09 04:40:34;;;;;;;15.23;8.18;;;;;;;;;;5093654;28;20032;-80
2022/03/09 04:43:00;;;;;;;17.83;8.95;;;;;;;;;;5094685;28;20032;-79
2022/03/09 04:45:26;;;;;;;15.52;8.05;;;;;;;;;;5094195;28;20028;-79
2022/03/09 04:47:52;;;;;;;16.77;8.63;;;;;;;;;;5083296;28;20028;-80
2022/03/09 04:50:18;;;;;;;16.25;8.70;;;;;;;;;;5073138;28;20024;-79
2022/03/09 04:52:45;;;;;;;14.55;8.23;;;;;;;;;;5074308;28;20467;-80
2022/03/09 04:55:11;;;;;;;18.58;8.07;;;;;;;;;;5074598;28;20112;-80
2022/03/09 04:57:37;;;;;;;17.25;8.95;;;;;;;;;;5074204;28;20099;-79
2022/03/09 05:00:04;;;;;;;15.98;7.90;;;;;;;;;;5074527;28;20095;-80
2022/03/09 05:02:30;;;;;;;16.77;8.50;;;;;;;;;;5074257;28;20021;-80
2022/03/09 05:04:56;;;;;;;15.27;8.25;;;;;;;;;;5074327;28;20048;-80
2022/03/09 05:07:22;;;;;;;18.65;7.90;;;;;;;;;;5074225;28;20056;-80
2022/03/09 05:09:48;;;;;;;17.85;7.85;;;;;;;;;;5074068;28;20025;-80
2022/03/09 05:12:14;;;;;;;16.13;8.50;;;;;;;;;;5074289;28;20031;-80
2022/03/09 05:14:40;;;;;;;20.42;7.65;;;;;;;;;;5073997;28;20052;-79
2022/03/09 05:17:06;;;;;;;18.13;7.45;;;;;;;;;;5074326;28;20082;-79
2022/03/09 05:19:32;;;;;;;14.85;7.93;;;;;;;;;;5082724;28;20077;-79
2022/03/09 05:21:58;;;;;;;19.45;8.40;;;;;;;;;;5094257;28;20024;-80
2022/03/09 05:24:24;;;;;;;17.40;7.85;;;;;;;;;;5093774;28;20454;-80
2022/03/09 05:26:50;;;;;;;16.75;7.43;;;;;;;;;;5094232;28;20462;-80
2022/03/09 05:29:16;;;;;;;19.88;7.88;;;;;;;;;;5093845;28;20111;-80
2022/03/09 05:31:44;;;;;;;18.33;7.32;;;;;;;;;;5093746;28;20024;-80
2022/03/09 05:34:10;;;;;;;17.67;8.05;;;;;;;;;;5093949;28;20103;-79
2022/03/09 05:36:36;;;;;;;15.07;7.95;;;;;;;;;;5094002;28;20063;-79
2022/03/09 05:39:03;;;;;;;16.80;7.82;;;;;;;;;;5093430;28;20470;-79
2022/03/09 05:41:29;;;;;;;16.88;7.82;;;;;;;;;;5092546;28;20064;-80
2022/03/09 05:43:55;;;;;;;19.33;8.45;;;;;;;;;;5093710;28;20481;-80
2022/03/09 05:46:21;;;;;;;18.50;8.68;;;;;;;;;;5093775;28;20161;-80
2022/03/09 05:48:48;;;;;;;15.55;7.57;;;;;;;;;;5088675;28;20447;-80
2022/03/09 05:51:14;;;;;;;18.48;8.77;;;;;;;;;;5073364;28;20031;-79
2022/03/09 05:53:40;;;;;;;17.13;7.80;;;;;;;;;;5073221;28;20501;-80
2022/03/09 05:56:06;;;;;;;19.40;8.40;;;;;;;;;;5072632;28;20042;-80
2022/03/09 05:58:32;;;;;;;19.90;8.45;;;;;;;;;;5073388;28;20103;-79
2022/03/09 06:00:58;;;;;;;20.20;8.13;;;;;;;;;;5073203;28;20339;-80
2022/03/09 06:03:24;;;;;;;18.73;8.13;;;;;;;;;;5073135;28;20029;-79
2022/03/09 06:05:50;;;;;;;20.10;9.60;;;;;;;;;;5092154;28;20035;-80
2022/03/09 06:08:17;;;;;;;19.10;7.93;;;;;;;;;;5093142;28;20046;-80
2022/03/09 06:10:43;;;;;;;16.50;8.23;;;;;;;;;;5093295;28;20032;-80
2022/03/09 06:13:09;;;;;;;17.23;7.75;;;;;;;;;;5093309;28;20032;-80
2022/03/09 06:15:35;;;;;;;20.95;8.63;;;;;;;;;;5092777;28;20485;-80
2022/03/09 06:18:01;;;;;;;19.17;7.90;;;;;;;;;;5092835;28;20034;-79
2022/03/09 06:20:27;;;;;;;20.90;8.32;;;;;;;;;;5076494;28;20028;-79
2022/03/09 06:22:53;;;;;;;16.55;7.88;;;;;;;;;;5071218;28;20158;-79
2022/03/09 06:25:19;;;;;;;16.38;8.35;;;;;;;;;;5072682;28;20056;-79
2022/03/09 06:27:46;;;;;;;24.25;8.23;;;;;;;;;;5072603;28;20028;-79
2022/03/09 06:30:13;;;;;;;16.48;8.80;;;;;;;;;;5072616;28;20028;-79
2022/03/09 06:32:41;;;;;;;21.33;7.78;;;;;;;;;;5072429;28;20028;-79
2022/03/09 06:35:07;;;;;;;17.95;7.82;;;;;;;;;;5072489;28;20104;-79
2022/03/09 06:37:33;;;;;;;14.00;7.47;;;;;;;;;;5079826;28;20081;-79
2022/03/09 06:40:00;;;;;;;15.90;7.47;;;;;;;;;;5092657;28;20024;-79
2022/03/09 06:42:26;;;;;;;18.15;8.05;;;;;;;;;;5092529;28;20039;-79
2022/03/09 06:44:53;;;;;;;21.15;9.00;;;;;;;;;;5092492;28;20485;-79
2022/03/09 06:47:19;;;;;;;19.58;7.82;;;;;;;;;;5090947;28;20028;-79
2022/03/09 06:49:45;;;;;;;13.82;7.13;;;;;;;;;;5092277;28;20494;-80
2022/03/09 06:52:11;;;;;;;16.20;8.10;;;;;;;;;;5091012;28;20375;-80
2022/03/09 06:54:37;;;;;;;13.80;7.47;;;;;;;;;;5092037;28;20040;-79
2022/03/09 06:57:03;;;;;;;14.90;6.95;;;;;;;;;;5092050;28;20016;-79
2022/03/09 06:59:29;;;;;;;15.02;7.72;;;;;;;;;;5092174;28;20027;-79
2022/03/09 07:01:55;;;;;;;20.52;8.10;;;;;;;;;;5092162;28;20020;-79
2022/03/09 07:04:21;;;;;;;17.58;7.95;;;;;;;;;;5091817;28;20114;-79
2022/03/09 07:06:47;;;;;;;13.43;7.28;;;;;;;;;;5092740;28;20401;-79
2022/03/09 07:09:14;;;;;;;20.02;7.90;;;;;;;;;;5095847;28;20032;-80
2022/03/09 07:11:41;;;;;;;18.90;7.28;;;;;;;;;;5095851;28;20016;-79
2022/03/09 07:14:07;;;;;;;16.83;7.55;;;;;;;;;;5095666;28;20028;-79
2022/03/09 07:16:33;;;;;;;16.73;7.88;;;;;;;;;;5094340;28;20020;-79
2022/03/09 07:18:59;;;;;;;14.05;7.43;;;;;;;;;;5095076;28;20012;-79
2022/03/09 07:21:25;;;;;;;19.17;6.95;;;;;;;;;;5095594;28;20020;-79
2022/03/09 07:23:51;;;;;;;16.42;6.95;;;;;;;;;;5095702;28;20024;-79
2022/03/09 07:26:17;;;;;;;17.58;6.70;;;;;;;;;;5095593;28;20789;-79
2022/03/09 07:28:43;;;;;;;13.80;7.18;;;;;;;;;;5095553;28;20031;-79
2022/03/09 07:31:09;;;;;;;16.10;6.95;;;;;;;;;;5095862;28;20020;-79
2022/03/09 07:33:35;;;;;;;11.60;6.30;;;;;;;;;;5095363;28;20024;-79
2022/03/09 07:36:02;;;;;;;14.70;7.05;;;;;;;;;;5095329;28;20436;-79
2022/03/09 07:38:28;;;;;;;11.27;6.50;;;;;;;;;;5095332;28;20024;-78
2022/03/09 07:40:54;;;;;;;15.60;6.50;;;;;;;;;;5095309;28;20103;-79
2022/03/09 07:43:21;;;;;;;17.42;7.50;;;;;;;;;;5095069;28;20466;-79
2022/03/09 07:45:47;;;;;;;17.95;6.80;;;;;;;;;;5092381;28;20042;-79
2022/03/09 07:48:13;;;;;;;14.40;7.05;;;;;;;;;;5094730;28;20031;-79
2022/03/09 07:50:39;;;;;;;20.67;7.18;;;;;;;;;;5095180;28;20407;-79
2022/03/09 07:53:06;;;;;;;13.10;6.40;;;;;;;;;;5094199;28;20040;-78
2022/03/09 07:55:32;;;;;;;12.20;6.28;;;;;;;;;;5094553;28;20073;-79
2022/03/09 07:57:58;;;;;;;12.95;6.28;;;;;;;;;;5094117;28;20096;-78
2022/03/09 08:00:25;;;;;;;18.30;7.00;;;;;;;;;;5093734;28;20027;-78
2022/03/09 08:02:51;;;;;;;17.17;6.82;;;;;;;;;;5094549;28;20378;-78
2022/03/09 08:05:17;;;;;;;15.73;6.05;;;;;;;;;;5094571;28;20108;-79
2022/03/09 08:07:45;;;;;;;13.48;6.63;;;;;;;;;;5094496;28;20085;-79
2022/03/09 08:10:11;;;;;;;15.18;6.47;;;;;;;;;;5094411;28;20122;-79
2022/03/09 08:12:38;;;;;;;11.13;5.97;;;;;;;;;;5094647;28;20028;-79
2022/03/09 08:15:05;;;;;;;14.23;6.22;;;;;;;;;;5094824;28;20035;-79
2022/03/09 08:17:31;;;;;;;11.23;6.18;;;;;;;;;;5094630;28;20095;-79
2022/03/09 08:19:57;;;;;;;10.70;5.80;;;;;;;;;;5091069;28;20767;-79
2022/03/09 08:22:23;;;;;;;11.63;5.90;;;;;;;;;;5094956;28;20020;-80
2022/03/09 08:24:49;;;;;;;11.73;5.75;;;;;;;;;;5094438;28;20028;-79
2022/03/09 08:27:15;;;;;;;15.18;5.97;;;;;;;;;;5094807;28;20023;-79
2022/03/09 08:29:41;;;;;;;11.20;6.03;;;;;;;;;;5093164;28;20111;-80
2022/03/09 08:32:07;;;;;;;11.77;6.22;;;;;;;;;;5094888;28;20035;-80
2022/03/09 08:34:33;;;;;;;14.38;5.97;;;;;;;;;;5094426;28;20020;-80
2022/03/09 08:36:59;;;;;;;15.73;6.63;;;;;;;;;;5093294;28;20091;-80
2022/03/09 08:39:26;;;;;;;11.60;6.13;;;;;;;;;;5094452;28;20412;-79
2022/03/09 08:41:52;;;;;;;19.27;6.22;;;;;;;;;;5094500;28;20024;-80
2022/03/09 08:44:20;;;;;;;12.50;5.90;;;;;;;;;;5094329;28;20078;-79
2022/03/09 08:46:46;;;;;;;10.93;5.68;;;;;;;;;;5091599;28;20016;-79
2022/03/09 08:49:12;;;;;;;13.50;5.78;;;;;;;;;;5094058;28;20020;-79
2022/03/09 08:51:38;;;;;;;11.68;6.22;;;;;;;;;;5094206;28;20067;-80
2022/03/09 08:54:04;;;;;;;14.48;6.10;;;;;;;;;;5094296;28;20052;-80
2022/03/09 08:56:30;;;;;;;11.85;5.85;;;;;;;;;;5094660;28;20024;-80
2022/03/09 08:58:56;;;;;;;18.08;7.10;;;;;;;;;;5094309;28;20024;-80
2022/03/09 09:01:23;;;;;;;11.38;6.20;;;;;;;;;;5094418;28;20020;-78
2022/03/09 09:03:49;;;;;;;12.20;5.70;;;;;;;;;;5094054;28;20026;-80
2022/03/09 09:06:15;;;;;;;9.82;5.60;;;;;;;;;;5093972;28;20022;-80
2022/03/09 09:08:41;;;;;;;18.58;6.03;;;;;;;;;;5093414;28;20307;-79
2022/03/09 09:11:07;;;;;;;13.38;6.15;;;;;;;;;;5093173;28;20527;-79
2022/03/09 09:13:33;;;;;;;15.18;6.18;;;;;;;;;;5093388;28;20081;-80
2022/03/09 09:15:59;;;;;;;10.25;6.07;;;;;;;;;;5092291;28;20103;-77
2022/03/09 09:18:26;;;;;;;17.25;6.72;;;;;;;;;;5094047;28;20101;-80
2022/03/09 09:20:52;;;;;;;13.20;5.60;;;;;;;;;;5074330;28;20021;-79
2022/03/09 09:23:19;;;;;;;16.90;7.20;;;;;;;;;;5078235;28;20027;-78
2022/03/09 09:25:45;;;;;;;12.02;6.05;;;;;;;;;;5093107;28;20023;-78
2022/03/09 09:28:12;;;;;;;11.35;6.20;;;;;;;;;;5093959;28;20024;-78
2022/03/09 09:30:38;;;;;;;12.65;6.82;;;;;;;;;;5093608;28;20039;-78
2022/03/09 09:33:04;;;;;;;10.82;6.35;;;;;;;;;;5093178;28;20036;-78
2022/03/09 09:35:30;;;;;;;16.75;7.55;;;;;;;;;;5092906;28;20450;-78
2022/03/09 09:37:56;;;;;;;16.90;7.20;;;;;;;;;;5092622;28;20099;-78
2022/03/09 09:40:24;;;;;;;17.60;7.50;;;;;;;;;;5093079;28;20108;-78
2022/03/09 09:42:50;;;;;;;17.40;7.93;;;;;;;;;;5090057;28;20026;-78
2022/03/09 09:45:16;;;;;;;16.13;7.22;;;;;;;;;;5092674;28;20027;-78
2022/03/09 09:47:43;;;;;;;14.65;7.18;;;;;;;;;;5092314;28;20035;-78
2022/03/09 09:50:13;;;;;;;18.27;7.10;;;;;;;;;;5089954;28;20024;-78
2022/03/09 09:52:41;;;;;;;16.98;7.60;;;;;;;;;;5092554;28;20034;-78
2022/03/09 09:55:07;;;;;;;14.77;6.93;;;;;;;;;;5092085;28;20405;-78
2022/03/09 09:57:33;;;;;;;11.77;7.43;;;;;;;;;;5091193;28;20376;-79
2022/03/09 09:59:59;;;;;;;15.07;6.97;;;;;;;;;;5092173;28;20054;-79
2022/03/09 10:02:25;;;;;;;20.25;7.80;;;;;;;;;;5092940;28;20085;-77
2022/03/09 10:04:52;;;;;;;16.70;7.35;;;;;;;;;;5092322;28;20462;-77
2022/03/09 10:07:18;;;;;;;16.95;7.70;;;;;;;;;;5092254;28;20097;-77
2022/03/09 10:09:44;;;;;;;17.00;7.90;;;;;;;;;;5092196;28;20490;-77
2022/03/09 10:12:13;;;;;;;13.10;7.47;;;;;;;;;;5091639;28;20096;-77
2022/03/09 10:14:43;;;;;;;14.30;7.53;;;;;;;;;;5091447;28;20031;-77
2022/03/09 10:17:12;;;;;;;17.42;7.47;;;;;;;;;;5092166;28;20024;-77
2022/03/09 10:19:40;;;;;;;18.05;8.00;;;;;;;;;;5092086;28;20016;-77
2022/03/09 10:22:25;;;;;;;16.02;7.90;;;;;;;;;;5092310;28;20073;-77
2022/03/09 10:24:52;;;;;;;19.13;8.43;;;;;;;;;;5091958;28;20024;-77
2022/03/09 10:27:35;;;;;;;15.90;8.60;;;;;;;;;;5092213;28;20084;-77
2022/03/09 10:30:01;;;;;;;15.07;8.30;;;;;;;;;;5092046;28;20029;-77
2022/03/09 10:32:46;;;;;;;16.20;8.88;;;;;;;;;;5092096;28;20103;-77
2022/03/09 10:35:14;;;;;;;14.63;8.18;;;;;;;;;;5091909;28;20028;-77
2022/03/09 10:37:44;;;;;;;14.35;7.53;;;;;;;;;;5091551;28;20150;-77
2022/03/09 10:40:11;;;;;;;15.48;7.38;;;;;;;;;;5091325;28;20024;-77
2022/03/09 10:42:37;;;;;;;16.73;8.68;;;;;;;;;;5090664;28;20021;-77
2022/03/09 10:45:07;;;;;;;16.10;7.88;;;;;;;;;;5091093;28;20100;-77
2022/03/09 10:47:37;;;;;;;19.95;8.45;;;;;;;;;;5091003;28;20046;-77
2022/03/09 10:50:11;;;;;;;15.23;7.53;;;;;;;;;;5089490;28;20031;-77
2022/03/09 10:52:44;;;;;;;15.48;8.40;;;;;;;;;;5090159;28;20070;-77
2022/03/09 10:55:39;;;;;;;13.73;7.97;;;;;;;;;;5090184;28;20020;-78
2022/03/09 10:58:16;;;;;;;16.42;8.65;;;;;;;;;;5017625;28;20436;-77
2022/03/09 11:00:44;;;;;;;14.10;8.27;;;;;;;;;;5017006;28;20060;-77
2022/03/09 11:03:12;;;;;;;16.10;8.07;;;;;;;;;;5017034;28;20055;-77
2022/03/09 11:05:47;;;;;;;16.88;9.05;;;;;;;;;;5014535;28;20042;-76
2022/03/09 11:08:14;;;;;;;18.80;9.00;;;;;;;;;;5025380;28;20038;-77
2022/03/09 11:10:40;;;;;;;21.70;9.07;;;;;;;;;;5029339;28;20116;-79
2022/03/09 11:13:06;;;;;;;16.77;9.00;;;;;;;;;;5026100;28;20037;-79
2022/03/09 11:15:32;;;;;;;16.95;8.63;;;;;;;;;;5018824;28;20432;-78
2022/03/09 11:17:59;;;;;;;15.10;8.95;;;;;;;;;;5016877;28;20100;-77
2022/03/09 11:20:25;;;;;;;17.23;9.60;;;;;;;;;;5028920;28;20025;-78
2022/03/09 11:22:51;;;;;;;16.30;9.35;;;;;;;;;;5028899;28;20025;-77
2022/03/09 11:25:21;;;;;;;21.20;9.50;;;;;;;;;;5028941;28;20174;-79
2022/03/09 11:27:49;;;;;;;17.80;9.50;;;;;;;;;;5029209;28;20447;-78
2022/03/09 11:30:28;;;;;;;20.70;9.95;;;;;;;;;;5028762;28;20141;-77
2022/03/09 11:32:55;;;;;;;19.17;9.50;;;;;;;;;;5018638;28;20083;-77
2022/03/09 11:35:35;;;;;;;19.58;10.15;;;;;;;;;;5079531;28;20081;-77
2022/03/09 11:38:02;;;;;;;20.48;10.48;;;;;;;;;;5089319;28;20369;-76
2022/03/09 11:40:28;;;;;;;24.02;11.27;;;;;;;;;;5091010;28;20016;-76
2022/03/09 11:42:55;;;;;;;18.83;10.85;;;;;;;;;;5089213;28;20725;-77
2022/03/09 11:45:21;;;;;;;25.20;9.93;;;;;;;;;;5090614;28;20032;-77
2022/03/09 11:48:09;;;;;;;20.85;11.68;;;;;;;;;;5090319;28;20024;-77
2022/03/09 11:50:57;;;;;;;20.27;11.02;;;;;;;;;;5090556;28;20028;-77
2022/03/09 11:53:43;;;;;;;23.85;11.88;;;;;;;;;;5077241;28;20367;-77
2022/03/09 11:56:21;;;;;;;25.95;11.93;;;;;;;;;;5093952;28;20108;-77
2022/03/09 11:59:06;;;;;;;20.92;12.05;;;;;;;;;;5093459;28;20028;-77
2022/03/09 12:01:32;;;;;;;25.33;13.25;;;;;;;;;;5094167;28;20057;-77
2022/03/09 12:03:58;;;;;;;30.58;12.85;;;;;;;;;;5093819;28;20395;-77
2022/03/09 12:06:42;;;;;;;27.73;12.70;;;;;;;;;;5093701;28;20035;-77
2022/03/09 12:09:09;;;;;;;20.90;11.50;;;;;;;;;;5094070;28;20024;-75
2022/03/09 12:11:55;;;;;;;27.65;13.15;;;;;;;;;;5094612;28;20024;-77
2022/03/09 12:14:41;;;;;;;21.73;12.48;;;;;;;;;;5094371;28;20042;-77
2022/03/09 12:17:07;;;;;;;21.88;12.55;;;;;;;;;;5093075;28;20047;-76
2022/03/09 12:19:33;;;;;;;24.05;13.30;;;;;;;;;;5088848;28;20416;-75
2022/03/09 12:22:03;;;;;;;21.80;12.30;;;;;;;;;;5093677;28;20245;-75
2022/03/09 12:24:33;;;;;;;22.65;12.50;;;;;;;;;;5093747;28;20055;-76
2022/03/09 12:26:59;;;;;;;26.02;13.73;;;;;;;;;;5094090;28;20099;-77
2022/03/09 12:29:34;;;;;;;27.55;12.80;;;;;;;;;;5093778;28;20141;-76
2022/03/09 12:32:07;;;;;;;24.95;12.90;;;;;;;;;;5092386;28;20044;-77
2022/03/09 12:34:37;;;;;;;24.52;12.27;;;;;;;;;;5094269;28;20389;-77
2022/03/09 12:37:05;;;;;;;26.58;13.27;;;;;;;;;;5094606;28;20518;-76
2022/03/09 12:39:31;;;;;;;21.50;12.65;;;;;;;;;;5094706;28;20016;-76
2022/03/09 12:41:58;;;;;;;26.90;13.52;;;;;;;;;;5094620;28;20032;-76
2022/03/09 12:44:25;;;;;;;23.38;13.75;;;;;;;;;;5093551;28;20028;-76
2022/03/09 12:46:52;;;;;;;22.98;12.95;;;;;;;;;;5090902;28;20450;-78
2022/03/09 12:49:29;;;;;;;23.55;12.93;;;;;;;;;;5093833;28;20035;-75
2022/03/09 12:52:07;;;;;;;23.98;13.63;;;;;;;;;;5093959;28;20039;-77
2022/03/09 12:54:32;;;;;;;33.08;12.70;;;;;;;;;;5092538;28;20059;-76
2022/03/09 12:57:05;;;;;;;22.40;12.50;;;;;;;;;;5092953;28;20031;-76
2022/03/09 12:59:31;;;;;;;23.20;12.73;;;;;;;;;;5093641;28;20016;-76
2022/03/09 13:01:57;;;;;;;22.13;12.30;;;;;;;;;;5093809;28;20474;-75
2022/03/09 13:04:25;;;;;;;24.55;13.15;;;;;;;;;;5093275;28;20093;-75
2022/03/09 13:06:51;;;;;;;25.38;13.00;;;;;;;;;;5093719;28;20135;-76
2022/03/09 13:09:23;;;;;;;24.30;11.80;;;;;;;;;;5093475;28;20032;-76
2022/03/09 13:11:49;;;;;;;24.58;12.45;;;;;;;;;;5073377;28;20028;-76
2022/03/09 13:14:19;;;;;;;27.92;14.05;;;;;;;;;;5073003;28;20032;-76
2022/03/09 13:16:45;;;;;;;27.13;13.68;;;;;;;;;;5085651;28;20024;-76
2022/03/09 13:19:12;;;;;;;27.95;13.45;;;;;;;;;;5093047;28;20090;-76
2022/03/09 13:21:39;;;;;;;25.95;14.48;;;;;;;;;;5093440;28;20024;-75
2022/03/09 13:24:06;;;;;;;25.65;14.70;;;;;;;;;;5093213;28;20016;-76
2022/03/09 13:26:39;;;;;;;26.38;14.43;;;;;;;;;;5093162;28;20028;-76
2022/03/09 13:29:10;;;;;;;26.05;14.25;;;;;;;;;;5093323;28;20024;-76
2022/03/09 13:31:42;;;;;;;26.17;14.27;;;;;;;;;;5093156;28;20016;-76
2022/03/09 13:34:32;;;;;;;24.73;13.23;;;;;;;;;;5092876;28;20038;-75
2022/03/09 13:37:02;;;;;;;24.90;13.68;;;;;;;;;;5093120;28;20077;-75
2022/03/09 13:40:01;;;;;;;25.15;14.35;;;;;;;;;;5092999;28;20103;-75
2022/03/09 13:42:30;;;;;;;26.70;13.90;;;;;;;;;;5030438;28;20033;-75
2022/03/09 13:45:20;;;;;;;32.25;15.30;;;;;;;;;;5030190;28;20061;-75
2022/03/09 13:47:52;;;;;;;25.98;14.38;;;;;;;;;;4990780;28;20042;-75
2022/03/09 13:50:21;;;;;;;27.05;14.68;;;;;;;;;;4990928;28;20042;-75
2022/03/09 13:52:47;;;;;;;28.52;14.52;;;;;;;;;;4990453;28;20038;-75
2022/03/09 13:55:29;;;;;;;26.58;14.88;;;;;;;;;;4990795;28;20151;-75
2022/03/09 13:57:59;;;;;;;28.45;15.52;;;;;;;;;;4990740;28;20046;-75
2022/03/09 14:00:30;;;;;;;29.27;15.60;;;;;;;;;;4990886;28;20137;-75
2022/03/09 14:02:57;;;;;;;25.67;14.70;;;;;;;;;;4990876;28;20034;-76
2022/03/09 14:05:29;;;;;;;26.45;15.70;;;;;;;;;;4990615;28;20419;-75
2022/03/09 14:07:57;;;;;;;26.25;14.57;;;;;;;;;;4990677;28;20032;-75
2022/03/09 14:10:25;;;;;;;28.90;16.13;;;;;;;;;;4990540;28;20015;-75
2022/03/09 14:12:51;;;;;;;27.88;14.85;;;;;;;;;;4990464;28;20141;-75
2022/03/09 14:15:17;;;;;;;27.88;15.70;;;;;;;;;;4990415;28;20034;-75
2022/03/09 14:17:43;;;;;;;29.88;16.23;;;;;;;;;;5011897;28;20040;-76
2022/03/09 14:20:11;;;;;;;26.40;16.83;;;;;;;;;;5049633;28;20494;-76
2022/03/09 14:22:48;;;;;;;25.67;16.52;;;;;;;;;;5049828;28;20083;-76
2022/03/09 14:25:15;;;;;;;30.70;17.02;;;;;;;;;;5065234;28;20040;-76
2022/03/09 14:27:41;;;;;;;26.90;16.83;;;;;;;;;;5071921;28;20104;-76
2022/03/09 14:30:08;;;;;;;25.50;16.60;;;;;;;;;;5071942;28;20020;-76
2022/03/09 14:32:35;;;;;;;27.23;16.98;;;;;;;;;;5071957;28;20029;-76
2022/03/09 14:35:01;;;;;;;26.83;17.38;;;;;;;;;;5071746;28;20534;-76